sensor_id;sensor_type;location;lat;lon;timestamp;temperature;humidity
11963;DHT22;62678;52.130;5.584;2022-12-10T00:01:44;-0.60;99.90
11963;DHT22;62678;52.130;5.584;2022-12-10T00:04:12;-0.70;99.90
11963;DHT22;62678;52.130;5.584;2022-12-10T00:06:40;-0.70;99.90
11963;DHT22;62678;52.130;5.584;2022-12-10T00:09:12;-0.70;99.90
11963;DHT22;62678;52.130;5.584;2022-12-10T00:11:39;-0.70;99.90
11963;DHT22;62678;52.130;5.584;2022-12-10T00:14:06;-0.70;99.90
11963;DHT22;62678;52.130;5.584;2022-12-10T00:16:35;-0.70;99.90
11963;DHT22;62678;52.130;5.584;2022-12-10T00:19:02;-0.70;99.90
11963;DHT22;62678;52.130;5.584;2022-12-10T00:21:31;-0.70;99.90
11963;DHT22;62678;52.130;5.584;2022-12-10T00:23:59;-0.70;99.90
11963;DHT22;62678;52.130;5.584;2022-12-10T00:26:30;-0.70;99.90
11963;DHT22;62678;52.130;5.584;2022-12-10T00:28:57;-0.70;99.90
11963;DHT22;62678;52.130;5.584;2022-12-10T00:31:28;-0.70;99.90
11963;DHT22;62678;52.130;5.584;2022-12-10T00:33:57;-0.80;99.90
11963;DHT22;62678;52.130;5.584;2022-12-10T00:36:27;-0.80;99.90
11963;DHT22;62678;52.130;5.584;2022-12-10T00:38:54;-0.70;99.90
11963;DHT22;62678;52.130;5.584;2022-12-10T00:41:21;-0.80;99.90
11963;DHT22;62678;52.130;5.584;2022-12-10T00:43:48;-0.80;99.90
11963;DHT22;62678;52.130;5.584;2022-12-10T00:46:16;-0.80;99.90
11963;DHT22;62678;52.130;5.584;2022-12-10T00:48:44;-0.80;99.90
11963;DHT22;62678;52.130;5.584;2022-12-10T00:51:14;-0.80;99.90
11963;DHT22;62678;52.130;5.584;2022-12-10T00:53:43;-0.80;99.90
11963;DHT22;62678;52.130;5.584;2022-12-10T00:56:11;-0.80;99.90
11963;DHT22;62678;52.130;5.584;2022-12-10T00:58:39;-0.90;99.90
11963;DHT22;62678;52.130;5.584;2022-12-10T01:01:08;-0.80;99.90
11963;DHT22;62678;52.130;5.584;2022-12-10T01:03:36;-0.80;99.90
11963;DHT22;62678;52.130;5.584;2022-12-10T01:06:12;-0.70;99.90
11963;DHT22;62678;52.130;5.584;2022-12-10T01:08:40;-0.70;99.90
11963;DHT22;62678;52.130;5.584;2022-12-10T01:11:07;-0.80;99.90
11963;DHT22;62678;52.130;5.584;2022-12-10T01:13:35;-0.80;99.90
11963;DHT22;62678;52.130;5.584;2022-12-10T01:16:05;-0.70;99.90
11963;DHT22;62678;52.130;5.584;2022-12-10T01:18:33;-0.70;99.90
11963;DHT22;62678;52.130;5.584;2022-12-10T01:21:01;-0.80;99.90
11963;DHT22;62678;52.130;5.584;2022-12-10T01:23:31;-0.80;99.90
11963;DHT22;62678;52.130;5.584;2022-12-10T01:26:00;-0.80;99.90
11963;DHT22;62678;52.130;5.584;2022-12-10T01:28:29;-0.80;99.90
11963;DHT22;62678;52.130;5.584;2022-12-10T01:31:00;-0.80;99.90
11963;DHT22;62678;52.130;5.584;2022-12-10T01:33:27;-0.80;99.90
11963;DHT22;62678;52.130;5.584;2022-12-10T01:35:53;-0.80;99.90
11963;DHT22;62678;52.130;5.584;2022-12-10T01:38:20;-0.90;99.90
11963;DHT22;62678;52.130;5.584;2022-12-10T01:40:49;-0.80;99.90
11963;DHT22;62678;52.130;5.584;2022-12-10T01:43:16;-0.80;99.90
11963;DHT22;62678;52.130;5.584;2022-12-10T01:45:42;-0.90;99.90
11963;DHT22;62678;52.130;5.584;2022-12-10T01:48:11;-0.90;99.90
11963;DHT22;62678;52.130;5.584;2022-12-10T01:50:38;-0.80;99.90
11963;DHT22;62678;52.130;5.584;2022-12-10T01:53:05;-0.90;99.90
11963;DHT22;62678;52.130;5.584;2022-12-10T01:55:42;-0.90;99.90
11963;DHT22;62678;52.130;5.584;2022-12-10T01:58:13;-0.90;99.90
11963;DHT22;62678;52.130;5.584;2022-12-10T02:00:55;-0.80;99.90
11963;DHT22;62678;52.130;5.584;2022-12-10T02:03:30;-0.80;99.90
11963;DHT22;62678;52.130;5.584;2022-12-10T02:06:09;-0.70;99.90
11963;DHT22;62678;52.130;5.584;2022-12-10T02:08:41;-0.70;99.90
11963;DHT22;62678;52.130;5.584;2022-12-10T02:11:16;-0.70;99.90
11963;DHT22;62678;52.130;5.584;2022-12-10T02:13:51;-0.60;99.90
11963;DHT22;62678;52.130;5.584;2022-12-10T02:16:26;-0.70;99.90
11963;DHT22;62678;52.130;5.584;2022-12-10T02:18:58;-0.60;99.90
11963;DHT22;62678;52.130;5.584;2022-12-10T02:21:34;-0.50;99.90
11963;DHT22;62678;52.130;5.584;2022-12-10T02:24:05;-0.50;99.90
11963;DHT22;62678;52.130;5.584;2022-12-10T02:26:42;-0.50;99.90
11963;DHT22;62678;52.130;5.584;2022-12-10T02:29:15;-0.40;99.90
11963;DHT22;62678;52.130;5.584;2022-12-10T02:31:45;-0.30;99.90
11963;DHT22;62678;52.130;5.584;2022-12-10T02:34:13;-0.20;99.90
11963;DHT22;62678;52.130;5.584;2022-12-10T02:36:43;-0.20;99.90
11963;DHT22;62678;52.130;5.584;2022-12-10T02:39:15;-0.30;99.90
11963;DHT22;62678;52.130;5.584;2022-12-10T02:41:47;-0.40;99.90
11963;DHT22;62678;52.130;5.584;2022-12-10T02:44:19;-0.30;99.90
11963;DHT22;62678;52.130;5.584;2022-12-10T02:46:49;-0.40;99.90
11963;DHT22;62678;52.130;5.584;2022-12-10T02:49:17;-0.30;99.90
11963;DHT22;62678;52.130;5.584;2022-12-10T02:51:44;-0.20;99.90
11963;DHT22;62678;52.130;5.584;2022-12-10T02:54:33;-0.20;99.90
11963;DHT22;62678;52.130;5.584;2022-12-10T02:57:04;-0.10;99.90
11963;DHT22;62678;52.130;5.584;2022-12-10T02:59:45;-0.10;99.90
11963;DHT22;62678;52.130;5.584;2022-12-10T03:02:18;-0.10;99.90
11963;DHT22;62678;52.130;5.584;2022-12-10T03:04:50;-0.10;99.90
11963;DHT22;62678;52.130;5.584;2022-12-10T03:07:24;-0.10;99.90
11963;DHT22;62678;52.130;5.584;2022-12-10T03:09:54;0.00;99.90
11963;DHT22;62678;52.130;5.584;2022-12-10T03:12:27;-0.10;99.90
11963;DHT22;62678;52.130;5.584;2022-12-10T03:14:58;-0.10;99.90
11963;DHT22;62678;52.130;5.584;2022-12-10T03:17:27;0.00;99.90
11963;DHT22;62678;52.130;5.584;2022-12-10T03:19:55;0.00;99.90
11963;DHT22;62678;52.130;5.584;2022-12-10T03:22:24;0.10;99.90
11963;DHT22;62678;52.130;5.584;2022-12-10T03:24:52;0.00;99.90
11963;DHT22;62678;52.130;5.584;2022-12-10T03:27:21;0.10;99.90
11963;DHT22;62678;52.130;5.584;2022-12-10T03:29:51;0.10;99.90
11963;DHT22;62678;52.130;5.584;2022-12-10T03:32:21;0.00;99.90
11963;DHT22;62678;52.130;5.584;2022-12-10T03:34:50;0.10;99.90
11963;DHT22;62678;52.130;5.584;2022-12-10T03:37:18;0.10;99.90
11963;DHT22;62678;52.130;5.584;2022-12-10T03:39:45;0.10;99.90
11963;DHT22;62678;52.130;5.584;2022-12-10T03:42:12;0.10;99.90
11963;DHT22;62678;52.130;5.584;2022-12-10T03:44:39;0.20;99.90
11963;DHT22;62678;52.130;5.584;2022-12-10T03:47:09;0.20;99.90
11963;DHT22;62678;52.130;5.584;2022-12-10T03:49:38;0.10;99.90
11963;DHT22;62678;52.130;5.584;2022-12-10T03:52:05;0.10;99.90
11963;DHT22;62678;52.130;5.584;2022-12-10T03:54:32;0.00;99.90
11963;DHT22;62678;52.130;5.584;2022-12-10T03:56:59;-0.10;99.90
11963;DHT22;62678;52.130;5.584;2022-12-10T03:59:26;0.00;99.90
11963;DHT22;62678;52.130;5.584;2022-12-10T04:01:53;0.10;99.90
11963;DHT22;62678;52.130;5.584;2022-12-10T04:04:20;0.10;99.90
11963;DHT22;62678;52.130;5.584;2022-12-10T04:06:48;0.10;99.90
11963;DHT22;62678;52.130;5.584;2022-12-10T04:09:16;0.10;99.90
11963;DHT22;62678;52.130;5.584;2022-12-10T04:11:43;0.20;99.90
11963;DHT22;62678;52.130;5.584;2022-12-10T04:14:11;0.20;99.90
11963;DHT22;62678;52.130;5.584;2022-12-10T04:16:56;0.10;99.90
11963;DHT22;62678;52.130;5.584;2022-12-10T04:19:23;0.00;99.90
11963;DHT22;62678;52.130;5.584;2022-12-10T04:21:51;0.00;99.90
11963;DHT22;62678;52.130;5.584;2022-12-10T04:24:36;0.00;99.90
11963;DHT22;62678;52.130;5.584;2022-12-10T04:27:23;0.10;99.90
11963;DHT22;62678;52.130;5.584;2022-12-10T04:29:51;0.00;99.90
11963;DHT22;62678;52.130;5.584;2022-12-10T04:32:18;0.00;99.90
11963;DHT22;62678;52.130;5.584;2022-12-10T04:34:45;0.10;99.90
11963;DHT22;62678;52.130;5.584;2022-12-10T04:37:14;0.00;99.90
11963;DHT22;62678;52.130;5.584;2022-12-10T04:39:42;0.10;99.90
11963;DHT22;62678;52.130;5.584;2022-12-10T04:42:09;0.10;99.90
11963;DHT22;62678;52.130;5.584;2022-12-10T04:44:36;-0.10;99.90
11963;DHT22;62678;52.130;5.584;2022-12-10T04:47:04;-0.10;99.90
11963;DHT22;62678;52.130;5.584;2022-12-10T04:49:32;-0.10;99.90
11963;DHT22;62678;52.130;5.584;2022-12-10T04:51:59;0.10;99.90
11963;DHT22;62678;52.130;5.584;2022-12-10T04:54:27;0.00;99.90
11963;DHT22;62678;52.130;5.584;2022-12-10T04:56:54;-0.10;99.90
11963;DHT22;62678;52.130;5.584;2022-12-10T04:59:21;0.00;99.90
11963;DHT22;62678;52.130;5.584;2022-12-10T05:01:48;0.00;99.90
11963;DHT22;62678;52.130;5.584;2022-12-10T05:04:17;0.10;99.90
11963;DHT22;62678;52.130;5.584;2022-12-10T05:06:44;0.00;99.90
11963;DHT22;62678;52.130;5.584;2022-12-10T05:09:12;-0.10;99.90
11963;DHT22;62678;52.130;5.584;2022-12-10T05:11:40;-0.10;99.90
11963;DHT22;62678;52.130;5.584;2022-12-10T05:14:10;-0.10;99.90
11963;DHT22;62678;52.130;5.584;2022-12-10T05:16:37;-0.10;99.90
11963;DHT22;62678;52.130;5.584;2022-12-10T05:19:04;0.00;99.90
11963;DHT22;62678;52.130;5.584;2022-12-10T05:21:31;0.00;99.90
11963;DHT22;62678;52.130;5.584;2022-12-10T05:24:12;0.00;99.90
11963;DHT22;62678;52.130;5.584;2022-12-10T05:26:41;0.00;99.90
11963;DHT22;62678;52.130;5.584;2022-12-10T05:29:08;-0.10;99.90
11963;DHT22;62678;52.130;5.584;2022-12-10T05:31:35;-0.10;99.90
11963;DHT22;62678;52.130;5.584;2022-12-10T05:34:02;-0.10;99.90
11963;DHT22;62678;52.130;5.584;2022-12-10T05:36:30;-0.10;99.90
11963;DHT22;62678;52.130;5.584;2022-12-10T05:38:58;-0.10;99.90
11963;DHT22;62678;52.130;5.584;2022-12-10T05:41:27;-0.10;99.90
11963;DHT22;62678;52.130;5.584;2022-12-10T05:43:57;-0.10;99.90
11963;DHT22;62678;52.130;5.584;2022-12-10T05:46:26;-0.10;99.90
11963;DHT22;62678;52.130;5.584;2022-12-10T05:48:53;-0.10;99.90
11963;DHT22;62678;52.130;5.584;2022-12-10T05:51:22;-0.10;99.90
11963;DHT22;62678;52.130;5.584;2022-12-10T05:53:50;0.00;99.90
11963;DHT22;62678;52.130;5.584;2022-12-10T05:56:19;0.00;99.90
11963;DHT22;62678;52.130;5.584;2022-12-10T05:58:47;0.00;99.90
11963;DHT22;62678;52.130;5.584;2022-12-10T06:01:17;-0.10;99.90
11963;DHT22;62678;52.130;5.584;2022-12-10T06:03:45;-0.10;99.90
11963;DHT22;62678;52.130;5.584;2022-12-10T06:06:13;-0.20;99.90
11963;DHT22;62678;52.130;5.584;2022-12-10T06:08:40;-0.10;99.90
11963;DHT22;62678;52.130;5.584;2022-12-10T06:11:08;-0.10;99.90
11963;DHT22;62678;52.130;5.584;2022-12-10T06:13:36;-0.10;99.90
11963;DHT22;62678;52.130;5.584;2022-12-10T06:16:04;-0.10;99.90
11963;DHT22;62678;52.130;5.584;2022-12-10T06:18:33;-0.20;99.90
11963;DHT22;62678;52.130;5.584;2022-12-10T06:21:03;-0.10;99.90
11963;DHT22;62678;52.130;5.584;2022-12-10T06:23:31;-0.10;99.90
11963;DHT22;62678;52.130;5.584;2022-12-10T06:25:58;0.00;99.90
11963;DHT22;62678;52.130;5.584;2022-12-10T06:28:25;0.00;99.90
11963;DHT22;62678;52.130;5.584;2022-12-10T06:30:52;-0.10;99.90
11963;DHT22;62678;52.130;5.584;2022-12-10T06:33:18;-0.10;99.90
11963;DHT22;62678;52.130;5.584;2022-12-10T06:35:47;-0.10;99.90
11963;DHT22;62678;52.130;5.584;2022-12-10T06:38:13;-0.20;99.90
11963;DHT22;62678;52.130;5.584;2022-12-10T06:40:40;-0.10;99.90
11963;DHT22;62678;52.130;5.584;2022-12-10T06:43:07;-0.10;99.90
11963;DHT22;62678;52.130;5.584;2022-12-10T06:45:38;-0.10;99.90
11963;DHT22;62678;52.130;5.584;2022-12-10T06:48:05;-0.10;99.90
11963;DHT22;62678;52.130;5.584;2022-12-10T06:50:32;0.00;99.90
11963;DHT22;62678;52.130;5.584;2022-12-10T06:53:01;0.00;99.90
11963;DHT22;62678;52.130;5.584;2022-12-10T06:55:28;0.00;99.90
11963;DHT22;62678;52.130;5.584;2022-12-10T06:57:58;0.00;99.90
11963;DHT22;62678;52.130;5.584;2022-12-10T07:00:34;0.10;99.90
11963;DHT22;62678;52.130;5.584;2022-12-10T07:03:06;0.10;99.90
11963;DHT22;62678;52.130;5.584;2022-12-10T07:05:49;0.10;99.90
11963;DHT22;62678;52.130;5.584;2022-12-10T07:08:30;0.10;99.90
11963;DHT22;62678;52.130;5.584;2022-12-10T07:11:10;0.10;99.90
11963;DHT22;62678;52.130;5.584;2022-12-10T07:13:59;0.10;99.90
11963;DHT22;62678;52.130;5.584;2022-12-10T07:16:27;0.10;99.90
11963;DHT22;62678;52.130;5.584;2022-12-10T07:18:56;0.10;99.90
11963;DHT22;62678;52.130;5.584;2022-12-10T07:21:24;0.10;99.90
11963;DHT22;62678;52.130;5.584;2022-12-10T07:23:55;0.10;99.90
11963;DHT22;62678;52.130;5.584;2022-12-10T07:26:24;0.20;99.90
11963;DHT22;62678;52.130;5.584;2022-12-10T07:28:51;0.40;99.90
11963;DHT22;62678;52.130;5.584;2022-12-10T07:31:18;0.30;99.90
11963;DHT22;62678;52.130;5.584;2022-12-10T07:33:45;0.30;99.90
11963;DHT22;62678;52.130;5.584;2022-12-10T07:36:12;0.20;99.90
11963;DHT22;62678;52.130;5.584;2022-12-10T07:38:39;0.30;99.90
11963;DHT22;62678;52.130;5.584;2022-12-10T07:41:11;0.20;99.90
11963;DHT22;62678;52.130;5.584;2022-12-10T07:43:40;0.20;99.90
11963;DHT22;62678;52.130;5.584;2022-12-10T07:46:09;0.40;99.90
11963;DHT22;62678;52.130;5.584;2022-12-10T07:48:38;0.30;99.90
11963;DHT22;62678;52.130;5.584;2022-12-10T07:51:05;0.30;99.90
11963;DHT22;62678;52.130;5.584;2022-12-10T07:53:32;0.30;99.90
11963;DHT22;62678;52.130;5.584;2022-12-10T07:55:59;0.30;99.90
11963;DHT22;62678;52.130;5.584;2022-12-10T07:58:27;0.30;99.90
11963;DHT22;62678;52.130;5.584;2022-12-10T08:00:57;0.30;99.90
11963;DHT22;62678;52.130;5.584;2022-12-10T08:03:23;0.20;99.90
11963;DHT22;62678;52.130;5.584;2022-12-10T08:06:00;0.30;99.90
11963;DHT22;62678;52.130;5.584;2022-12-10T08:08:27;0.30;99.90
11963;DHT22;62678;52.130;5.584;2022-12-10T08:10:54;0.20;99.90
11963;DHT22;62678;52.130;5.584;2022-12-10T08:13:22;0.20;99.90
11963;DHT22;62678;52.130;5.584;2022-12-10T08:15:50;0.10;99.90
11963;DHT22;62678;52.130;5.584;2022-12-10T08:18:17;0.30;99.90
11963;DHT22;62678;52.130;5.584;2022-12-10T08:20:45;0.40;99.90
11963;DHT22;62678;52.130;5.584;2022-12-10T08:23:12;0.40;99.90
11963;DHT22;62678;52.130;5.584;2022-12-10T08:25:39;0.40;99.90
11963;DHT22;62678;52.130;5.584;2022-12-10T08:28:06;0.40;99.90
11963;DHT22;62678;52.130;5.584;2022-12-10T08:30:34;0.30;99.90
11963;DHT22;62678;52.130;5.584;2022-12-10T08:33:03;0.30;99.90
11963;DHT22;62678;52.130;5.584;2022-12-10T08:35:30;0.20;99.90
11963;DHT22;62678;52.130;5.584;2022-12-10T08:37:56;0.30;99.90
11963;DHT22;62678;52.130;5.584;2022-12-10T08:40:23;0.20;99.90
11963;DHT22;62678;52.130;5.584;2022-12-10T08:42:51;0.20;99.90
11963;DHT22;62678;52.130;5.584;2022-12-10T08:45:21;0.10;99.90
11963;DHT22;62678;52.130;5.584;2022-12-10T08:47:48;0.20;99.90
11963;DHT22;62678;52.130;5.584;2022-12-10T08:50:16;0.20;99.90
11963;DHT22;62678;52.130;5.584;2022-12-10T08:52:43;0.20;99.90
11963;DHT22;62678;52.130;5.584;2022-12-10T08:55:10;0.20;99.90
11963;DHT22;62678;52.130;5.584;2022-12-10T08:57:37;0.10;99.90
11963;DHT22;62678;52.130;5.584;2022-12-10T09:00:04;0.10;99.90
11963;DHT22;62678;52.130;5.584;2022-12-10T09:02:32;0.10;99.90
11963;DHT22;62678;52.130;5.584;2022-12-10T09:04:59;0.20;99.90
11963;DHT22;62678;52.130;5.584;2022-12-10T09:07:27;0.20;99.90
11963;DHT22;62678;52.130;5.584;2022-12-10T09:09:54;0.20;99.90
11963;DHT22;62678;52.130;5.584;2022-12-10T09:12:21;0.10;99.90
11963;DHT22;62678;52.130;5.584;2022-12-10T09:14:48;0.20;99.90
11963;DHT22;62678;52.130;5.584;2022-12-10T09:17:15;0.10;99.90
11963;DHT22;62678;52.130;5.584;2022-12-10T09:19:42;0.10;99.90
11963;DHT22;62678;52.130;5.584;2022-12-10T09:22:09;0.10;99.90
11963;DHT22;62678;52.130;5.584;2022-12-10T09:24:37;0.20;99.90
11963;DHT22;62678;52.130;5.584;2022-12-10T09:27:04;0.10;99.90
11963;DHT22;62678;52.130;5.584;2022-12-10T09:29:31;0.10;99.90
11963;DHT22;62678;52.130;5.584;2022-12-10T09:31:58;0.10;99.90
11963;DHT22;62678;52.130;5.584;2022-12-10T09:34:25;0.00;99.90
11963;DHT22;62678;52.130;5.584;2022-12-10T09:36:52;0.10;99.90
11963;DHT22;62678;52.130;5.584;2022-12-10T09:39:19;0.10;99.90
11963;DHT22;62678;52.130;5.584;2022-12-10T09:42:09;0.10;99.90
11963;DHT22;62678;52.130;5.584;2022-12-10T09:44:46;0.00;99.90
11963;DHT22;62678;52.130;5.584;2022-12-10T09:47:17;0.00;99.90
11963;DHT22;62678;52.130;5.584;2022-12-10T09:49:53;0.10;99.90
11963;DHT22;62678;52.130;5.584;2022-12-10T09:52:23;0.20;99.90
11963;DHT22;62678;52.130;5.584;2022-12-10T09:54:55;0.10;99.90
11963;DHT22;62678;52.130;5.584;2022-12-10T09:57:27;0.20;99.90
11963;DHT22;62678;52.130;5.584;2022-12-10T10:00:10;0.20;99.90
11963;DHT22;62678;52.130;5.584;2022-12-10T10:02:43;0.10;99.90
11963;DHT22;62678;52.130;5.584;2022-12-10T10:05:13;0.20;99.90
11963;DHT22;62678;52.130;5.584;2022-12-10T10:07:44;0.20;99.90
11963;DHT22;62678;52.130;5.584;2022-12-10T10:10:20;0.20;99.90
11963;DHT22;62678;52.130;5.584;2022-12-10T10:12:51;0.20;99.90
11963;DHT22;62678;52.130;5.584;2022-12-10T10:15:22;0.30;99.90
11963;DHT22;62678;52.130;5.584;2022-12-10T10:17:53;0.10;99.90
11963;DHT22;62678;52.130;5.584;2022-12-10T10:20:21;0.20;99.90
11963;DHT22;62678;52.130;5.584;2022-12-10T10:22:48;0.20;99.90
11963;DHT22;62678;52.130;5.584;2022-12-10T10:25:16;0.20;99.90
11963;DHT22;62678;52.130;5.584;2022-12-10T10:27:44;0.20;99.90
11963;DHT22;62678;52.130;5.584;2022-12-10T10:30:16;0.40;99.90
11963;DHT22;62678;52.130;5.584;2022-12-10T10:32:47;0.50;99.90
11963;DHT22;62678;52.130;5.584;2022-12-10T10:35:25;0.40;99.90
11963;DHT22;62678;52.130;5.584;2022-12-10T10:37:56;0.40;99.90
11963;DHT22;62678;52.130;5.584;2022-12-10T10:40:25;0.50;99.90
11963;DHT22;62678;52.130;5.584;2022-12-10T10:42:55;0.40;99.90
11963;DHT22;62678;52.130;5.584;2022-12-10T10:45:49;0.60;99.90
11963;DHT22;62678;52.130;5.584;2022-12-10T10:48:19;0.50;99.90
11963;DHT22;62678;52.130;5.584;2022-12-10T10:50:47;0.40;99.90
11963;DHT22;62678;52.130;5.584;2022-12-10T10:53:42;0.40;99.90
11963;DHT22;62678;52.130;5.584;2022-12-10T10:56:10;0.50;99.90
11963;DHT22;62678;52.130;5.584;2022-12-10T10:58:49;0.60;99.90
11963;DHT22;62678;52.130;5.584;2022-12-10T11:01:18;0.60;99.90
11963;DHT22;62678;52.130;5.584;2022-12-10T11:03:48;0.50;99.90
11963;DHT22;62678;52.130;5.584;2022-12-10T11:06:16;0.50;99.90
11963;DHT22;62678;52.130;5.584;2022-12-10T11:08:45;0.50;99.90
11963;DHT22;62678;52.130;5.584;2022-12-10T11:11:19;0.40;99.90
11963;DHT22;62678;52.130;5.584;2022-12-10T11:13:46;0.40;99.90
11963;DHT22;62678;52.130;5.584;2022-12-10T11:16:20;0.40;99.90
11963;DHT22;62678;52.130;5.584;2022-12-10T11:18:57;0.50;99.90
11963;DHT22;62678;52.130;5.584;2022-12-10T11:21:28;0.50;99.90
11963;DHT22;62678;52.130;5.584;2022-12-10T11:23:56;0.40;99.90
11963;DHT22;62678;52.130;5.584;2022-12-10T11:26:58;0.40;99.90
11963;DHT22;62678;52.130;5.584;2022-12-10T11:29:42;0.40;99.90
11963;DHT22;62678;52.130;5.584;2022-12-10T11:32:23;0.40;99.90
11963;DHT22;62678;52.130;5.584;2022-12-10T11:35:00;0.30;99.90
11963;DHT22;62678;52.130;5.584;2022-12-10T11:37:32;0.40;99.90
11963;DHT22;62678;52.130;5.584;2022-12-10T11:40:14;0.50;99.90
11963;DHT22;62678;52.130;5.584;2022-12-10T11:42:57;0.40;99.90
11963;DHT22;62678;52.130;5.584;2022-12-10T11:45:33;0.50;99.90
11963;DHT22;62678;52.130;5.584;2022-12-10T11:48:16;0.50;99.90
11963;DHT22;62678;52.130;5.584;2022-12-10T11:50:50;0.50;99.90
11963;DHT22;62678;52.130;5.584;2022-12-10T11:53:35;0.50;99.90
11963;DHT22;62678;52.130;5.584;2022-12-10T11:56:10;0.50;99.90
11963;DHT22;62678;52.130;5.584;2022-12-10T11:58:51;0.50;99.90
11963;DHT22;62678;52.130;5.584;2022-12-10T12:01:25;0.50;99.90
11963;DHT22;62678;52.130;5.584;2022-12-10T12:04:18;0.50;99.90
11963;DHT22;62678;52.130;5.584;2022-12-10T12:07:18;0.40;99.90
11963;DHT22;62678;52.130;5.584;2022-12-10T12:10:14;0.40;99.90
11963;DHT22;62678;52.130;5.584;2022-12-10T12:12:49;0.40;99.90
11963;DHT22;62678;52.130;5.584;2022-12-10T12:15:22;0.40;99.90
11963;DHT22;62678;52.130;5.584;2022-12-10T12:17:55;0.40;99.90
11963;DHT22;62678;52.130;5.584;2022-12-10T12:20:27;0.50;99.90
11963;DHT22;62678;52.130;5.584;2022-12-10T12:22:57;0.40;99.90
11963;DHT22;62678;52.130;5.584;2022-12-10T12:25:27;0.40;99.90
11963;DHT22;62678;52.130;5.584;2022-12-10T12:28:00;0.50;99.90
11963;DHT22;62678;52.130;5.584;2022-12-10T12:30:32;0.40;99.90
11963;DHT22;62678;52.130;5.584;2022-12-10T12:33:02;0.60;99.90
11963;DHT22;62678;52.130;5.584;2022-12-10T12:35:40;0.60;99.90
11963;DHT22;62678;52.130;5.584;2022-12-10T12:38:21;0.50;99.90
11963;DHT22;62678;52.130;5.584;2022-12-10T12:40:52;0.50;99.90
11963;DHT22;62678;52.130;5.584;2022-12-10T12:43:22;0.50;99.90
11963;DHT22;62678;52.130;5.584;2022-12-10T12:45:53;0.60;99.90
11963;DHT22;62678;52.130;5.584;2022-12-10T12:48:23;0.60;99.90
11963;DHT22;62678;52.130;5.584;2022-12-10T12:50:59;0.70;99.90
11963;DHT22;62678;52.130;5.584;2022-12-10T12:53:26;0.60;99.90
11963;DHT22;62678;52.130;5.584;2022-12-10T12:55:58;0.60;99.90
11963;DHT22;62678;52.130;5.584;2022-12-10T12:58:36;0.60;99.90
11963;DHT22;62678;52.130;5.584;2022-12-10T13:01:19;0.60;99.90
11963;DHT22;62678;52.130;5.584;2022-12-10T13:03:48;0.50;99.90
11963;DHT22;62678;52.130;5.584;2022-12-10T13:06:20;0.60;99.90
11963;DHT22;62678;52.130;5.584;2022-12-10T13:08:50;0.60;99.90
11963;DHT22;62678;52.130;5.584;2022-12-10T13:11:33;0.60;99.90
11963;DHT22;62678;52.130;5.584;2022-12-10T13:14:14;0.60;99.90
11963;DHT22;62678;52.130;5.584;2022-12-10T13:19:41;0.50;99.90
11963;DHT22;62678;52.130;5.584;2022-12-10T13:22:11;0.50;99.90
11963;DHT22;62678;52.130;5.584;2022-12-10T13:25:13;0.50;99.90
11963;DHT22;62678;52.130;5.584;2022-12-10T13:27:40;0.60;99.90
11963;DHT22;62678;52.130;5.584;2022-12-10T13:30:32;0.60;99.90
11963;DHT22;62678;52.130;5.584;2022-12-10T13:33:10;0.70;99.90
11963;DHT22;62678;52.130;5.584;2022-12-10T13:35:49;0.70;99.90
11963;DHT22;62678;52.130;5.584;2022-12-10T13:38:22;0.80;99.90
11963;DHT22;62678;52.130;5.584;2022-12-10T13:41:02;0.60;99.90
11963;DHT22;62678;52.130;5.584;2022-12-10T13:43:54;0.50;99.90
11963;DHT22;62678;52.130;5.584;2022-12-10T13:46:54;0.50;99.90
11963;DHT22;62678;52.130;5.584;2022-12-10T13:49:24;0.50;99.90
11963;DHT22;62678;52.130;5.584;2022-12-10T13:51:59;0.50;99.90
11963;DHT22;62678;52.130;5.584;2022-12-10T13:57:42;0.50;99.90
11963;DHT22;62678;52.130;5.584;2022-12-10T14:00:15;0.50;99.90
11963;DHT22;62678;52.130;5.584;2022-12-10T14:02:56;0.40;99.90
11963;DHT22;62678;52.130;5.584;2022-12-10T14:05:55;0.40;99.90
11963;DHT22;62678;52.130;5.584;2022-12-10T14:08:30;0.40;99.90
11963;DHT22;62678;52.130;5.584;2022-12-10T14:11:00;0.40;99.90
11963;DHT22;62678;52.130;5.584;2022-12-10T14:13:33;0.50;99.90
11963;DHT22;62678;52.130;5.584;2022-12-10T14:16:03;0.50;99.90
11963;DHT22;62678;52.130;5.584;2022-12-10T14:18:32;0.40;99.90
11963;DHT22;62678;52.130;5.584;2022-12-10T14:21:03;0.40;99.90
11963;DHT22;62678;52.130;5.584;2022-12-10T14:23:33;0.50;99.90
11963;DHT22;62678;52.130;5.584;2022-12-10T14:26:06;0.40;99.90
11963;DHT22;62678;52.130;5.584;2022-12-10T14:28:40;0.40;99.90
11963;DHT22;62678;52.130;5.584;2022-12-10T14:31:14;0.40;99.90
11963;DHT22;62678;52.130;5.584;2022-12-10T14:33:44;0.40;99.90
11963;DHT22;62678;52.130;5.584;2022-12-10T14:36:23;0.40;99.90
11963;DHT22;62678;52.130;5.584;2022-12-10T14:38:51;0.30;99.90
11963;DHT22;62678;52.130;5.584;2022-12-10T14:41:20;0.40;99.90
11963;DHT22;62678;52.130;5.584;2022-12-10T14:43:49;0.40;99.90
11963;DHT22;62678;52.130;5.584;2022-12-10T14:46:18;0.50;99.90
11963;DHT22;62678;52.130;5.584;2022-12-10T14:48:49;0.50;99.90
11963;DHT22;62678;52.130;5.584;2022-12-10T14:51:18;0.60;99.90
11963;DHT22;62678;52.130;5.584;2022-12-10T14:53:46;0.50;99.90
11963;DHT22;62678;52.130;5.584;2022-12-10T14:56:18;0.60;99.90
11963;DHT22;62678;52.130;5.584;2022-12-10T14:58:50;0.60;99.90
11963;DHT22;62678;52.130;5.584;2022-12-10T15:01:24;0.50;99.90
11963;DHT22;62678;52.130;5.584;2022-12-10T15:03:53;0.60;99.90
11963;DHT22;62678;52.130;5.584;2022-12-10T15:06:20;0.60;99.90
11963;DHT22;62678;52.130;5.584;2022-12-10T15:08:49;0.60;99.90
11963;DHT22;62678;52.130;5.584;2022-12-10T15:11:17;0.70;99.90
11963;DHT22;62678;52.130;5.584;2022-12-10T15:13:47;0.60;99.90
11963;DHT22;62678;52.130;5.584;2022-12-10T15:16:20;0.60;99.90
11963;DHT22;62678;52.130;5.584;2022-12-10T15:18:53;0.60;99.90
11963;DHT22;62678;52.130;5.584;2022-12-10T15:21:23;0.70;99.90
11963;DHT22;62678;52.130;5.584;2022-12-10T15:24:11;0.60;99.90
11963;DHT22;62678;52.130;5.584;2022-12-10T15:26:43;0.70;99.90
11963;DHT22;62678;52.130;5.584;2022-12-10T15:29:34;0.80;99.90
11963;DHT22;62678;52.130;5.584;2022-12-10T15:32:06;0.70;99.90
11963;DHT22;62678;52.130;5.584;2022-12-10T15:34:39;0.80;99.90
11963;DHT22;62678;52.130;5.584;2022-12-10T15:37:16;0.90;99.90
11963;DHT22;62678;52.130;5.584;2022-12-10T15:39:46;0.80;99.90
11963;DHT22;62678;52.130;5.584;2022-12-10T15:42:30;0.80;99.90
11963;DHT22;62678;52.130;5.584;2022-12-10T15:45:02;0.70;99.90
11963;DHT22;62678;52.130;5.584;2022-12-10T15:47:32;0.70;99.90
11963;DHT22;62678;52.130;5.584;2022-12-10T15:50:04;0.90;99.90
11963;DHT22;62678;52.130;5.584;2022-12-10T15:52:31;0.90;99.90
11963;DHT22;62678;52.130;5.584;2022-12-10T15:54:58;0.90;99.90
11963;DHT22;62678;52.130;5.584;2022-12-10T15:57:27;0.90;99.90
11963;DHT22;62678;52.130;5.584;2022-12-10T15:59:55;0.90;99.90
11963;DHT22;62678;52.130;5.584;2022-12-10T16:02:36;0.90;99.90
11963;DHT22;62678;52.130;5.584;2022-12-10T16:05:11;0.90;99.90
11963;DHT22;62678;52.130;5.584;2022-12-10T16:07:39;1.00;99.90
11963;DHT22;62678;52.130;5.584;2022-12-10T16:10:07;0.90;99.90
11963;DHT22;62678;52.130;5.584;2022-12-10T16:12:36;0.90;99.90
11963;DHT22;62678;52.130;5.584;2022-12-10T16:15:05;0.90;99.90